Time;durP1;ratioP1;P1;durP2;ratioP2;P2;SDS_P1;SDS_P2;PMS_P1;PMS_P2;Temp;Humidity;BMP_temperature;BMP_pressure;BME280_temperature;BME280_humidity;BME280_pressure;Samples;Min_cycle;Max_cycle;Signal;HPM_P1;HPM_P2
2022/01/29 00:00:33;;;;;;;25.52;13.70;;;5.30;99.90;;;;;;5114124;28;20476;-73
2022/01/29 00:02:58;;;;;;;21.55;12.43;;;5.40;99.90;;;;;;5115480;28;20046;-69
2022/01/29 00:05:24;;;;;;;21.95;11.57;;;5.40;99.90;;;;;;5114937;28;20032;-68
2022/01/29 00:07:50;;;;;;;19.20;12.20;;;5.30;99.90;;;;;;5113423;28;20103;-69
2022/01/29 00:10:16;;;;;;;24.75;11.82;;;5.40;99.90;;;;;;5113466;28;20122;-68
2022/01/29 00:12:42;;;;;;;18.38;11.43;;;5.30;99.90;;;;;;5112808;28;20031;-68
2022/01/29 00:15:08;;;;;;;25.92;13.43;;;5.30;99.90;;;;;;5113280;28;20027;-69
2022/01/29 00:17:34;;;;;;;24.50;12.63;;;5.30;99.90;;;;;;5115784;28;20067;-70
2022/01/29 00:20:00;;;;;;;27.35;13.15;;;5.40;99.90;;;;;;5119031;27;20034;-70
2022/01/29 00:22:26;;;;;;;23.20;12.63;;;5.20;99.90;;;;;;5126480;27;20036;-68
2022/01/29 00:24:52;;;;;;;19.15;11.73;;;5.20;99.90;;;;;;5117531;28;20118;-68
2022/01/29 00:27:20;;;;;;;26.85;13.52;;;5.30;99.90;;;;;;5126632;27;20079;-69
2022/01/29 00:29:45;;;;;;;27.88;13.23;;;5.30;99.90;;;;;;5122180;27;20369;-70
2022/01/29 00:32:12;;;;;;;18.95;12.07;;;5.40;99.90;;;;;;5118028;28;20023;-70
2022/01/29 00:34:39;;;;;;;22.25;13.68;;;5.20;99.90;;;;;;5116379;28;20030;-71
2022/01/29 00:37:05;;;;;;;26.15;13.25;;;5.30;99.90;;;;;;5116354;28;20032;-70
2022/01/29 00:39:31;;;;;;;25.70;13.00;;;5.30;99.90;;;;;;5116519;28;20027;-70
2022/01/29 00:41:57;;;;;;;20.42;11.90;;;5.10;99.90;;;;;;5116729;28;20020;-71
2022/01/29 00:44:23;;;;;;;22.13;12.55;;;5.20;99.90;;;;;;5117053;28;20023;-71
2022/01/29 00:46:48;;;;;;;21.33;12.13;;;5.30;99.90;;;;;;5117630;28;20461;-70
2022/01/29 00:49:15;;;;;;;20.65;10.90;;;5.20;99.90;;;;;;5119257;28;20027;-71
2022/01/29 00:51:40;;;;;;;21.23;11.82;;;5.20;99.90;;;;;;5119372;28;20024;-69
2022/01/29 00:54:07;;;;;;;21.60;11.10;;;5.30;99.90;;;;;;5120735;28;20495;-69
2022/01/29 00:56:33;;;;;;;20.55;10.80;;;5.30;99.90;;;;;;5119272;28;20031;-68
2022/01/29 00:58:58;;;;;;;21.90;12.15;;;5.20;99.90;;;;;;5116792;28;20354;-67
2022/01/29 01:01:24;;;;;;;21.60;10.82;;;5.20;99.90;;;;;;5118158;28;20024;-70
2022/01/29 01:03:50;;;;;;;21.05;10.80;;;5.30;99.90;;;;;;5116988;28;20411;-69
2022/01/29 01:06:16;;;;;;;19.67;10.40;;;5.30;99.90;;;;;;5114097;28;20530;-68
2022/01/29 01:08:42;;;;;;;17.42;9.95;;;5.30;99.90;;;;;;5114931;28;20106;-68
2022/01/29 01:11:08;;;;;;;20.88;10.75;;;5.30;99.90;;;;;;5114297;28;20095;-68
2022/01/29 01:13:34;;;;;;;22.63;11.52;;;5.30;99.90;;;;;;5114472;28;20404;-69
2022/01/29 01:16:02;;;;;;;18.63;10.07;;;5.40;99.90;;;;;;5115275;28;20059;-68
2022/01/29 01:18:27;;;;;;;17.92;10.48;;;5.40;99.90;;;;;;5114051;28;20038;-69
2022/01/29 01:20:53;;;;;;;18.65;10.45;;;5.30;99.90;;;;;;5113774;28;20119;-68
2022/01/29 01:23:20;;;;;;;19.58;10.43;;;5.40;99.90;;;;;;5114156;28;20115;-68
2022/01/29 01:25:45;;;;;;;20.92;10.30;;;5.40;99.90;;;;;;5113437;28;20027;-69
2022/01/29 01:28:14;;;;;;;19.15;10.77;;;5.40;99.90;;;;;;5112698;28;20040;-68
2022/01/29 01:30:39;;;;;;;19.15;10.82;;;5.30;99.90;;;;;;5114209;28;20110;-69
2022/01/29 01:33:05;;;;;;;19.67;10.70;;;5.40;99.90;;;;;;5115808;28;20100;-69
2022/01/29 01:35:41;;;;;;;19.45;10.02;;;5.30;99.90;;;;;;5115556;28;20027;-68
2022/01/29 01:38:23;;;;;;;17.80;10.73;;;5.30;99.90;;;;;;5114551;28;20353;-69
2022/01/29 01:40:58;;;;;;;20.48;10.77;;;5.30;99.90;;;;;;5114819;28;20374;-68
2022/01/29 01:43:24;;;;;;;17.02;10.40;;;5.30;99.90;;;;;;5115122;28;20026;-69
2022/01/29 01:45:49;;;;;;;21.55;11.05;;;5.30;99.90;;;;;;5112510;28;20114;-68
2022/01/29 01:48:15;;;;;;;16.45;10.60;;;5.30;99.90;;;;;;5114629;28;20035;-69
2022/01/29 01:50:41;;;;;;;21.70;10.45;;;5.30;99.90;;;;;;5112922;28;20051;-70
2022/01/29 01:53:07;;;;;;;22.52;9.68;;;5.30;99.90;;;;;;5113880;28;20365;-69
2022/01/29 01:55:33;;;;;;;18.98;9.57;;;5.30;99.90;;;;;;5123134;27;20038;-69
2022/01/29 01:57:59;;;;;;;19.85;10.45;;;5.30;99.90;;;;;;5133486;27;20359;-69
2022/01/29 02:00:25;;;;;;;20.15;9.63;;;5.30;99.90;;;;;;5134942;27;20496;-69
2022/01/29 02:02:51;;;;;;;22.27;10.55;;;5.40;99.90;;;;;;5134788;27;20027;-69
2022/01/29 02:05:17;;;;;;;15.18;8.27;;;5.40;99.90;;;;;;5135021;27;20106;-69
2022/01/29 02:07:43;;;;;;;18.05;8.80;;;5.40;99.90;;;;;;5132859;27;20103;-64
2022/01/29 02:10:11;;;;;;;15.77;8.93;;;5.40;99.90;;;;;;5120554;27;20023;-69
2022/01/29 02:12:50;;;;;;;16.73;8.88;;;5.40;99.90;;;;;;5113117;28;20405;-69
2022/01/29 02:15:18;;;;;;;15.43;7.55;;;5.40;99.90;;;;;;5112809;28;20111;-70
2022/01/29 02:17:48;;;;;;;17.30;8.20;;;5.40;99.90;;;;;;5113328;28;20032;-69
2022/01/29 02:20:15;;;;;;;17.02;8.52;;;5.30;99.90;;;;;;5114682;28;20483;-69
2022/01/29 02:22:43;;;;;;;12.48;7.07;;;5.30;99.90;;;;;;5113108;28;20027;-74
2022/01/29 02:25:29;;;;;;;21.38;7.57;;;5.30;99.90;;;;;;5113758;28;20485;-69
2022/01/29 02:28:05;;;;;;;20.80;7.90;;;5.30;99.90;;;;;;5111673;28;20051;-68
2022/01/29 02:30:33;;;;;;;16.00;9.68;;;5.40;99.90;;;;;;5113014;28;20030;-69
2022/01/29 02:33:04;;;;;;;14.65;7.32;;;5.40;99.90;;;;;;5112099;28;20522;-70
2022/01/29 02:35:30;;;;;;;13.25;7.22;;;5.40;99.90;;;;;;5112386;28;20028;-68
2022/01/29 02:37:57;;;;;;;13.05;6.97;;;5.40;99.90;;;;;;5112281;28;20380;-69
2022/01/29 02:40:23;;;;;;;14.27;7.82;;;5.30;99.90;;;;;;5112307;28;20030;-69
2022/01/29 02:42:52;;;;;;;19.13;8.82;;;5.30;99.90;;;;;;5111941;28;20019;-68
2022/01/29 02:45:18;;;;;;;14.98;7.20;;;5.30;99.90;;;;;;5113906;28;20039;-68
2022/01/29 02:47:44;;;;;;;19.95;8.85;;;5.10;99.90;;;;;;5113060;28;20031;-68
2022/01/29 02:50:10;;;;;;;16.25;8.30;;;5.10;99.90;;;;;;5114619;28;20156;-69
2022/01/29 02:52:38;;;;;;;16.08;8.93;;;5.20;99.90;;;;;;5114940;28;20063;-68
2022/01/29 02:55:06;;;;;;;15.57;9.07;;;5.20;99.90;;;;;;5114920;28;20053;-68
2022/01/29 02:57:32;;;;;;;17.48;9.68;;;5.20;99.90;;;;;;5114892;28;20028;-68
2022/01/29 03:00:00;;;;;;;16.50;8.85;;;5.20;99.90;;;;;;5114740;28;20039;-68
2022/01/29 03:02:27;;;;;;;21.88;9.73;;;5.20;99.90;;;;;;5113155;28;20122;-68
2022/01/29 03:04:54;;;;;;;16.83;10.60;;;5.10;99.90;;;;;;5113029;28;20030;-68
2022/01/29 03:07:20;;;;;;;17.02;10.02;;;5.20;99.90;;;;;;5112717;28;20027;-68
2022/01/29 03:09:46;;;;;;;20.10;10.30;;;5.20;99.90;;;;;;5114927;28;20098;-71
2022/01/29 03:12:12;;;;;;;18.77;9.63;;;5.20;99.90;;;;;;5096496;28;20045;-68
2022/01/29 03:14:37;;;;;;;19.35;10.18;;;5.30;99.90;;;;;;5113006;28;20039;-64
2022/01/29 03:17:03;;;;;;;20.63;11.18;;;5.10;99.90;;;;;;5112863;28;20080;-69
2022/01/29 03:19:29;;;;;;;17.92;9.93;;;5.10;99.90;;;;;;5113142;28;20034;-68
2022/01/29 03:21:54;;;;;;;16.80;9.45;;;5.20;99.90;;;;;;5111731;28;20073;-68
2022/01/29 03:24:20;;;;;;;22.27;9.88;;;5.20;99.90;;;;;;5112683;28;20023;-69
2022/01/29 03:26:47;;;;;;;20.00;10.10;;;5.20;99.90;;;;;;5112840;28;20054;-71
2022/01/29 03:29:12;;;;;;;17.48;10.20;;;5.10;99.90;;;;;;5113592;28;20062;-70
2022/01/29 03:31:38;;;;;;;21.42;10.40;;;5.10;99.90;;;;;;5111987;28;20385;-68
2022/01/29 03:34:03;;;;;;;20.45;11.18;;;5.10;99.90;;;;;;5112993;28;20023;-69
2022/01/29 03:36:30;;;;;;;22.55;10.90;;;5.10;99.90;;;;;;5113589;28;20031;-68
2022/01/29 03:38:56;;;;;;;18.10;9.55;;;5.10;99.90;;;;;;5113245;28;20405;-68
2022/01/29 03:41:22;;;;;;;18.88;9.93;;;5.20;99.90;;;;;;5113454;28;20027;-69
2022/01/29 03:43:51;;;;;;;16.40;9.98;;;5.10;99.90;;;;;;5113244;28;20024;-69
2022/01/29 03:46:17;;;;;;;23.73;11.65;;;5.10;99.90;;;;;;5113227;28;20027;-68
2022/01/29 03:48:42;;;;;;;22.70;10.88;;;5.00;99.90;;;;;;5113350;28;20036;-69
2022/01/29 03:51:08;;;;;;;24.58;10.18;;;5.10;99.90;;;;;;5115440;28;20123;-69
2022/01/29 03:53:34;;;;;;;19.77;11.18;;;5.00;99.90;;;;;;5120327;28;20378;-68
2022/01/29 03:56:00;;;;;;;18.42;10.27;;;5.10;99.90;;;;;;5119135;27;20392;-68
2022/01/29 03:58:25;;;;;;;20.42;11.13;;;5.00;99.90;;;;;;5118925;28;20125;-69
2022/01/29 04:00:51;;;;;;;19.20;10.73;;;4.90;99.90;;;;;;5118339;28;20051;-69
2022/01/29 04:03:17;;;;;;;20.45;11.88;;;5.00;99.90;;;;;;5120537;28;20110;-68
2022/01/29 04:05:43;;;;;;;15.55;8.90;;;5.10;99.90;;;;;;5119703;28;20369;-69
2022/01/29 04:08:15;;;;;;;20.80;10.48;;;5.10;99.90;;;;;;5119153;28;20469;-68
2022/01/29 04:10:41;;;;;;;20.88;10.40;;;5.10;99.90;;;;;;5121040;28;20027;-68
2022/01/29 04:13:10;;;;;;;21.98;12.45;;;5.10;99.90;;;;;;5121815;28;20492;-70
2022/01/29 04:15:36;;;;;;;18.92;10.57;;;5.10;99.90;;;;;;5123398;28;20031;-69
2022/01/29 04:18:02;;;;;;;32.20;12.23;;;5.10;99.90;;;;;;5120820;28;20042;-68
2022/01/29 04:20:28;;;;;;;16.58;10.27;;;5.10;99.90;;;;;;5121014;28;20020;-68
2022/01/29 04:22:53;;;;;;;19.95;10.93;;;5.20;99.90;;;;;;5121562;28;20024;-68
2022/01/29 04:25:19;;;;;;;22.05;10.82;;;5.20;99.90;;;;;;5122683;28;20040;-71
2022/01/29 04:27:47;;;;;;;23.13;11.02;;;5.20;99.90;;;;;;5119292;28;20047;-70
2022/01/29 04:30:53;;;;;;;15.25;9.98;;;5.20;99.90;;;;;;5116813;28;20053;-70
2022/01/29 04:33:28;;;;;;;20.80;10.32;;;5.30;99.90;;;;;;5116351;28;20071;-69
2022/01/29 04:35:54;;;;;;;19.90;10.77;;;5.30;99.90;;;;;;5118870;28;20023;-69
2022/01/29 04:38:20;;;;;;;18.35;9.88;;;5.30;99.90;;;;;;5119419;28;20024;-68
2022/01/29 04:40:46;;;;;;;22.50;11.38;;;5.30;99.90;;;;;;5120800;28;20031;-70
2022/01/29 04:43:11;;;;;;;18.10;9.60;;;5.30;99.90;;;;;;5120781;28;20381;-68
2022/01/29 04:45:37;;;;;;;21.17;11.70;;;5.40;99.90;;;;;;5117087;28;20048;-71
2022/01/29 04:48:03;;;;;;;18.08;9.38;;;5.30;99.90;;;;;;5118691;28;20035;-69
2022/01/29 04:50:29;;;;;;;16.90;10.65;;;5.30;99.90;;;;;;5120062;28;20274;-68
2022/01/29 04:52:54;;;;;;;19.95;10.15;;;5.30;99.90;;;;;;5119089;28;20450;-69
2022/01/29 04:55:20;;;;;;;16.42;9.80;;;5.30;99.90;;;;;;5118030;28;20027;-68
2022/01/29 04:57:45;;;;;;;15.95;10.23;;;5.30;99.90;;;;;;5118908;28;20035;-69
2022/01/29 05:00:20;;;;;;;19.17;9.90;;;5.40;99.90;;;;;;5117881;28;20027;-69
2022/01/29 05:02:51;;;;;;;16.63;8.93;;;5.40;99.90;;;;;;5114046;28;20028;-68
2022/01/29 05:05:17;;;;;;;17.65;9.48;;;5.40;99.90;;;;;;5116091;28;20039;-70
2022/01/29 05:07:44;;;;;;;18.80;10.13;;;5.20;99.90;;;;;;5116084;28;20028;-69
2022/01/29 05:10:13;;;;;;;21.25;10.15;;;5.30;99.90;;;;;;5115819;28;20515;-69
2022/01/29 05:12:56;;;;;;;16.15;10.00;;;5.30;99.90;;;;;;5115713;28;20024;-70
2022/01/29 05:29:05;;;;;;;17.70;9.25;;;5.30;99.90;;;;;;5114938;28;20070;-69
2022/01/29 05:31:31;;;;;;;13.60;8.32;;;5.40;99.90;;;;;;5114172;28;20457;-69
2022/01/29 05:33:57;;;;;;;14.38;8.68;;;5.40;99.90;;;;;;5114515;28;20080;-70
2022/01/29 05:36:23;;;;;;;15.00;9.15;;;5.40;99.90;;;;;;5113859;28;20072;-69
2022/01/29 05:38:49;;;;;;;13.68;7.68;;;5.40;99.90;;;;;;5113611;28;20381;-69
2022/01/29 05:41:14;;;;;;;14.45;8.52;;;5.40;99.90;;;;;;5113157;28;20027;-70
2022/01/29 05:43:42;;;;;;;15.48;7.45;;;5.40;99.90;;;;;;5114887;28;20030;-68
2022/01/29 05:46:11;;;;;;;14.35;8.52;;;5.30;99.90;;;;;;5112585;28;20059;-68
2022/01/29 05:48:37;;;;;;;14.40;7.65;;;5.30;99.90;;;;;;5113623;28;20072;-68
2022/01/29 05:51:03;;;;;;;16.67;7.93;;;5.30;99.90;;;;;;5114576;28;20031;-69
2022/01/29 05:53:28;;;;;;;15.75;8.10;;;5.30;99.90;;;;;;5114810;28;20569;-69
2022/01/29 05:55:54;;;;;;;12.98;7.78;;;5.30;99.90;;;;;;5114201;28;20035;-69
2022/01/29 05:58:22;;;;;;;13.40;7.05;;;5.20;99.90;;;;;;5114620;28;20035;-68
2022/01/29 06:00:48;;;;;;;14.93;8.05;;;5.30;99.90;;;;;;5115401;28;20522;-70
2022/01/29 06:03:14;;;;;;;15.23;7.80;;;5.20;99.90;;;;;;5114655;28;20171;-69
2022/01/29 06:05:39;;;;;;;13.05;7.07;;;5.30;99.90;;;;;;5114516;27;20087;-69
2022/01/29 06:08:06;;;;;;;14.98;8.02;;;5.20;99.90;;;;;;5113756;28;20031;-70
2022/01/29 06:10:32;;;;;;;18.98;8.88;;;5.20;99.90;;;;;;5113954;28;20023;-69
2022/01/29 06:13:03;;;;;;;15.60;8.77;;;5.20;99.90;;;;;;5115638;28;20030;-69
2022/01/29 06:15:31;;;;;;;14.20;8.30;;;5.20;99.90;;;;;;5113021;28;20027;-68
2022/01/29 06:17:58;;;;;;;13.57;7.97;;;5.10;99.90;;;;;;5112998;28;20030;-68
2022/01/29 06:20:24;;;;;;;17.75;8.48;;;5.20;99.90;;;;;;5117011;28;20027;-69
2022/01/29 06:22:50;;;;;;;13.98;7.93;;;5.00;99.90;;;;;;5117329;28;20027;-68
2022/01/29 06:25:16;;;;;;;18.05;9.52;;;5.00;99.90;;;;;;5116398;28;20089;-69
2022/01/29 06:27:41;;;;;;;16.35;7.97;;;5.00;99.90;;;;;;5115443;28;20039;-69
2022/01/29 06:30:07;;;;;;;16.05;9.48;;;5.00;99.90;;;;;;5119346;28;20035;-73
2022/01/29 06:32:33;;;;;;;16.38;8.70;;;5.10;99.90;;;;;;5119951;28;20027;-69
2022/01/29 06:34:59;;;;;;;15.40;9.20;;;5.10;99.90;;;;;;5118869;28;20042;-71
2022/01/29 06:37:24;;;;;;;16.52;8.55;;;5.10;99.90;;;;;;5120498;28;20030;-73
2022/01/29 06:39:50;;;;;;;17.70;9.25;;;5.10;99.90;;;;;;5117407;28;20066;-69
2022/01/29 06:42:15;;;;;;;15.52;9.32;;;5.00;99.90;;;;;;5114500;28;20133;-69
2022/01/29 06:44:41;;;;;;;16.67;9.70;;;5.00;99.90;;;;;;5113886;28;20149;-68
2022/01/29 06:47:07;;;;;;;20.77;9.25;;;5.00;99.90;;;;;;5112187;28;20473;-69
2022/01/29 06:49:32;;;;;;;19.13;8.48;;;4.90;99.90;;;;;;5114182;28;20034;-68
2022/01/29 06:51:58;;;;;;;17.25;8.68;;;5.00;99.90;;;;;;5113366;28;20499;-68
2022/01/29 06:54:24;;;;;;;17.25;8.77;;;5.00;99.90;;;;;;5113822;28;20019;-68
2022/01/29 06:56:50;;;;;;;14.68;8.65;;;5.00;99.90;;;;;;5112281;28;20059;-68
2022/01/29 06:59:15;;;;;;;18.90;9.05;;;5.00;99.90;;;;;;5112655;28;20356;-69
2022/01/29 07:01:41;;;;;;;17.52;9.90;;;5.00;99.90;;;;;;5112696;28;20447;-68
2022/01/29 07:04:07;;;;;;;15.80;8.38;;;5.00;99.90;;;;;;5113089;28;20024;-69
2022/01/29 07:06:32;;;;;;;17.95;9.18;;;5.00;99.90;;;;;;5112146;28;20110;-68
2022/01/29 07:08:59;;;;;;;16.55;8.82;;;5.00;99.90;;;;;;5113190;28;20024;-75
2022/01/29 07:11:25;;;;;;;17.40;9.43;;;4.90;99.90;;;;;;5112186;28;20023;-68
2022/01/29 07:14:00;;;;;;;16.58;8.85;;;4.90;99.90;;;;;;5112664;28;20027;-69
2022/01/29 07:16:27;;;;;;;16.83;9.23;;;5.00;99.90;;;;;;5112384;28;20063;-69
2022/01/29 07:18:52;;;;;;;17.27;10.02;;;5.00;99.90;;;;;;5112671;28;20055;-68
2022/01/29 07:21:18;;;;;;;18.50;9.32;;;4.90;99.90;;;;;;5113436;28;20129;-69
2022/01/29 07:23:44;;;;;;;16.67;8.57;;;4.90;99.90;;;;;;5113682;28;20422;-68
2022/01/29 07:26:10;;;;;;;17.60;9.90;;;4.80;99.90;;;;;;5114304;28;20480;-67
2022/01/29 07:28:36;;;;;;;17.58;9.95;;;4.80;99.90;;;;;;5119358;28;20056;-67
2022/01/29 07:31:02;;;;;;;16.73;9.40;;;4.70;99.90;;;;;;5117252;28;20066;-67
2022/01/29 07:33:28;;;;;;;20.52;10.15;;;4.70;99.90;;;;;;5117907;28;20019;-67
2022/01/29 07:35:55;;;;;;;20.15;10.27;;;4.70;99.90;;;;;;5117860;28;20030;-69
2022/01/29 07:38:21;;;;;;;17.27;9.43;;;4.70;99.90;;;;;;5116274;28;20024;-69
2022/01/29 07:40:47;;;;;;;15.32;9.07;;;4.70;99.90;;;;;;5119014;28;20028;-68
2022/01/29 07:43:12;;;;;;;21.42;9.23;;;4.60;99.90;;;;;;5123244;27;20053;-68
2022/01/29 07:45:38;;;;;;;19.17;10.70;;;4.70;99.90;;;;;;5139708;27;20031;-67
2022/01/29 07:48:04;;;;;;;22.40;10.50;;;4.70;99.90;;;;;;5139378;27;20576;-69
2022/01/29 07:50:31;;;;;;;15.70;10.13;;;4.70;99.90;;;;;;5137935;27;20080;-69
2022/01/29 07:52:59;;;;;;;17.15;10.02;;;4.70;99.90;;;;;;5138317;27;20098;-68
2022/01/29 07:55:30;;;;;;;18.27;10.77;;;4.70;99.90;;;;;;5138330;27;20057;-70
2022/01/29 07:57:56;;;;;;;16.85;9.77;;;4.80;99.90;;;;;;5126746;27;20182;-70
2022/01/29 08:00:22;;;;;;;15.50;9.90;;;4.70;99.90;;;;;;5119837;28;20032;-75
2022/01/29 08:02:48;;;;;;;8.13;4.97;;;6.70;99.90;;;;;;5120236;28;20080;-73
2022/01/29 08:05:13;;;;;;;14.60;6.32;;;9.50;99.90;;;;;;5119937;28;20028;-71
2022/01/29 08:07:39;;;;;;;12.13;6.53;;;10.70;99.90;;;;;;5117134;28;20081;-65
2022/01/29 08:10:06;;;;;;;11.43;7.47;;;10.30;99.90;;;;;;5115227;28;20020;-70
2022/01/29 08:12:32;;;;;;;14.05;8.85;;;10.10;99.90;;;;;;5123730;27;20038;-69
2022/01/29 08:14:57;;;;;;;12.13;7.93;;;7.50;99.90;;;;;;5122107;27;20027;-70
2022/01/29 08:17:23;;;;;;;14.50;8.23;;;6.50;99.90;;;;;;5125872;27;20031;-71
2022/01/29 08:19:50;;;;;;;15.27;8.60;;;6.00;99.90;;;;;;5123524;27;20030;-72
2022/01/29 08:22:16;;;;;;;16.98;8.70;;;5.80;99.90;;;;;;5125164;27;20027;-71
2022/01/29 08:24:42;;;;;;;15.02;8.13;;;5.60;99.90;;;;;;5130117;27;20011;-68
2022/01/29 08:27:08;;;;;;;10.93;7.85;;;5.40;99.90;;;;;;5126022;27;20393;-69
2022/01/29 08:29:34;;;;;;;12.13;7.80;;;5.40;99.90;;;;;;5126924;27;20110;-69
2022/01/29 08:32:00;;;;;;;16.70;8.18;;;5.40;99.90;;;;;;5128640;27;20027;-68
2022/01/29 08:34:26;;;;;;;18.67;8.32;;;5.20;99.90;;;;;;5117782;28;20073;-70
2022/01/29 08:36:53;;;;;;;12.88;7.38;;;5.30;99.90;;;;;;5114935;28;20028;-68
2022/01/29 08:39:19;;;;;;;11.95;8.18;;;5.20;99.90;;;;;;5115972;28;20107;-69
2022/01/29 08:41:44;;;;;;;13.05;8.18;;;5.20;99.90;;;;;;5116325;28;20115;-69
2022/01/29 08:44:10;;;;;;;13.88;7.72;;;5.30;99.90;;;;;;5115506;27;20024;-68
2022/01/29 08:46:37;;;;;;;14.55;7.72;;;5.40;99.90;;;;;;5122501;27;20039;-68
2022/01/29 08:49:06;;;;;;;11.88;7.57;;;5.40;99.90;;;;;;5123954;27;20036;-68
2022/01/29 08:51:32;;;;;;;11.77;7.43;;;5.40;99.90;;;;;;5113881;28;20102;-68
2022/01/29 08:53:58;;;;;;;13.00;7.53;;;5.40;99.90;;;;;;5131346;27;20073;-68
2022/01/29 08:56:24;;;;;;;11.48;7.38;;;5.40;99.90;;;;;;5115526;28;20023;-68
2022/01/29 08:58:49;;;;;;;11.65;6.88;;;5.50;99.90;;;;;;5114524;28;20023;-69
2022/01/29 09:01:15;;;;;;;14.23;7.80;;;5.40;99.90;;;;;;5115615;27;20024;-68
2022/01/29 09:03:42;;;;;;;11.70;6.50;;;5.40;99.90;;;;;;5114893;28;20106;-68
2022/01/29 09:06:08;;;;;;;14.18;6.85;;;5.40;99.90;;;;;;5129074;27;20035;-71
2022/01/29 09:08:34;;;;;;;9.50;6.30;;;5.50;99.90;;;;;;5116207;28;20095;-68
2022/01/29 09:11:00;;;;;;;10.25;5.63;;;5.40;99.90;;;;;;5115705;28;20468;-68
2022/01/29 09:13:26;;;;;;;11.43;6.78;;;5.40;99.90;;;;;;5114470;28;20023;-68
2022/01/29 09:15:53;;;;;;;10.98;6.35;;;5.50;99.90;;;;;;5116483;28;20514;-72
2022/01/29 09:18:18;;;;;;;9.50;5.25;;;5.50;99.90;;;;;;5119539;27;20030;-69
2022/01/29 09:20:44;;;;;;;11.70;6.28;;;5.50;99.90;;;;;;5136297;27;20023;-70
2022/01/29 09:23:10;;;;;;;7.43;4.90;;;5.50;99.90;;;;;;5137049;27;20023;-71
2022/01/29 09:25:36;;;;;;;9.82;5.10;;;5.50;99.90;;;;;;5137685;27;20421;-69
2022/01/29 09:28:03;;;;;;;8.48;5.13;;;5.50;99.90;;;;;;5138084;27;20047;-70
2022/01/29 09:30:30;;;;;;;11.18;5.05;;;5.60;99.90;;;;;;5136744;27;20220;-69
2022/01/29 09:32:55;;;;;;;11.20;5.15;;;5.50;99.90;;;;;;5137356;27;20016;-70
2022/01/29 09:35:21;;;;;;;12.73;5.15;;;5.50;99.90;;;;;;5135729;27;20031;-69
2022/01/29 09:37:47;;;;;;;6.82;4.65;;;5.60;99.90;;;;;;5136345;27;20019;-70
2022/01/29 09:40:14;;;;;;;8.82;4.72;;;5.60;99.90;;;;;;5138602;27;20371;-69
2022/01/29 09:42:40;;;;;;;7.88;4.32;;;5.70;99.90;;;;;;5140088;27;20027;-69
2022/01/29 09:45:08;;;;;;;5.65;4.03;;;5.70;99.90;;;;;;5121958;27;20047;-69
2022/01/29 09:47:36;;;;;;;5.40;3.10;;;5.70;99.90;;;;;;5138925;27;20476;-71
2022/01/29 09:50:03;;;;;;;5.15;3.55;;;5.60;99.90;;;;;;5138724;27;20027;-72
2022/01/29 09:52:29;;;;;;;4.25;3.15;;;5.60;99.90;;;;;;5138726;27;20031;-71
2022/01/29 09:54:54;;;;;;;4.78;2.78;;;5.60;99.90;;;;;;5138821;27;20035;-69
2022/01/29 09:57:20;;;;;;;5.07;3.28;;;5.60;99.90;;;;;;5137587;27;20031;-72
2022/01/29 09:59:48;;;;;;;4.43;3.00;;;5.70;99.90;;;;;;5135932;27;20023;-69
2022/01/29 10:02:18;;;;;;;3.83;2.40;;;5.70;99.90;;;;;;5137690;27;20461;-69
2022/01/29 10:04:56;;;;;;;6.50;2.63;;;5.50;99.90;;;;;;5129620;27;20020;-70
2022/01/29 10:07:28;;;;;;;3.38;2.47;;;5.60;99.90;;;;;;5115402;28;20507;-70
2022/01/29 10:09:56;;;;;;;2.88;2.20;;;5.60;99.90;;;;;;5114310;28;20026;-68
2022/01/29 10:12:31;;;;;;;3.13;2.55;;;5.50;99.90;;;;;;5114579;28;20027;-70
2022/01/29 10:15:04;;;;;;;2.88;2.20;;;5.50;99.90;;;;;;5113564;28;20053;-68
2022/01/29 10:17:44;;;;;;;3.65;2.30;;;5.60;99.90;;;;;;5113871;28;20388;-70
2022/01/29 10:20:28;;;;;;;3.40;1.98;;;5.60;99.90;;;;;;5114638;28;20027;-73
2022/01/29 10:22:57;;;;;;;4.30;2.47;;;5.60;99.90;;;;;;5116076;28;20027;-65
2022/01/29 10:25:24;;;;;;;4.28;2.20;;;6.90;99.90;;;;;;5125154;27;20035;-66
2022/01/29 10:28:15;;;;;;;1.85;1.52;;;8.00;99.90;;;;;;5134059;27;20162;-65
2022/01/29 10:30:51;;;;;;;4.97;2.10;;;8.40;99.90;;;;;;5118631;27;20034;-67
2022/01/29 10:33:25;;;;;;;2.08;1.58;;;10.20;99.90;;;;;;5129376;27;20059;-65
2022/01/29 10:35:52;;;;;;;9.27;1.95;;;9.10;99.90;;;;;;5114559;27;20464;-66
2022/01/29 10:38:26;;;;;;;6.93;1.70;;;9.10;99.90;;;;;;5127339;27;20027;-65
2022/01/29 10:41:18;;;;;;;3.28;2.08;;;9.60;99.90;;;;;;5121462;27;20027;-66
2022/01/29 10:44:21;;;;;;;4.65;1.70;;;8.40;99.90;;;;;;5113836;27;20024;-61
2022/01/29 10:46:55;;;;;;;2.20;1.83;;;8.10;99.90;;;;;;5073583;28;20056;-68
2022/01/29 10:49:35;;;;;;;2.50;1.60;;;8.10;99.90;;;;;;5113044;28;20537;-63
2022/01/29 10:52:10;;;;;;;3.38;1.40;;;7.90;99.90;;;;;;5126799;27;20107;-59
2022/01/29 10:54:41;;;;;;;2.45;1.60;;;7.30;99.90;;;;;;5131708;27;20031;-71
2022/01/29 10:57:07;;;;;;;;;;;7.20;99.90;;;;;;5114404;28;20028;-65
2022/01/29 10:59:35;;;;;;;1.52;1.20;;;8.10;99.90;;;;;;5118956;27;19911;-65
2022/01/29 11:02:03;;;;;;;2.92;2.00;;;8.40;99.90;;;;;;5113672;28;20102;-71
2022/01/29 11:04:30;;;;;;;2.20;1.45;;;8.30;99.90;;;;;;5113709;27;20042;-71
2022/01/29 11:07:01;;;;;;;4.35;1.63;;;7.20;99.90;;;;;;5114420;28;20461;-71
2022/01/29 11:09:28;;;;;;;5.13;2.28;;;6.80;99.90;;;;;;5130904;28;20019;-71
2022/01/29 11:11:57;;;;;;;4.43;1.73;;;6.50;99.90;;;;;;5134795;27;20062;-68
2022/01/29 11:14:24;;;;;;;3.05;2.10;;;6.30;99.90;;;;;;5127887;27;20023;-71
2022/01/29 11:16:52;;;;;;;2.80;1.90;;;6.10;99.90;;;;;;5115298;28;20031;-69
2022/01/29 11:19:17;;;;;;;2.22;1.60;;;6.00;99.90;;;;;;5119539;28;20049;-71
2022/01/29 11:21:46;;;;;;;2.42;1.92;;;6.10;99.90;;;;;;5134681;27;20035;-71
2022/01/29 11:24:16;;;;;;;3.33;1.92;;;6.10;99.90;;;;;;5133256;27;20016;-71
2022/01/29 11:26:44;;;;;;;3.65;2.25;;;6.10;99.90;;;;;;5131440;28;20047;-70
2022/01/29 11:29:25;;;;;;;7.90;2.35;;;6.20;99.90;;;;;;5123837;28;20150;-73
2022/01/29 11:32:22;;;;;;;3.20;2.13;;;6.10;99.90;;;;;;5113824;28;20034;-71
2022/01/29 11:35:08;;;;;;;2.25;1.75;;;6.20;99.90;;;;;;5114447;28;20032;-70
2022/01/29 11:37:39;;;;;;;2.50;1.90;;;6.20;99.90;;;;;;5124718;28;20379;-70
2022/01/29 11:40:20;;;;;;;2.75;1.42;;;6.10;99.90;;;;;;5130116;28;20128;-69
2022/01/29 11:43:21;;;;;;;5.53;1.88;;;6.10;99.90;;;;;;5134239;28;20088;-71
2022/01/29 11:45:57;;;;;;;9.27;1.60;;;6.10;99.90;;;;;;5131744;27;20047;-70
2022/01/29 11:48:29;;;;;;;3.70;2.15;;;6.10;99.90;;;;;;5119969;28;20023;-70
2022/01/29 11:50:55;;;;;;;4.15;2.15;;;6.10;99.90;;;;;;5116938;28;20035;-70
2022/01/29 11:53:22;;;;;;;3.65;2.13;;;6.10;99.90;;;;;;5117667;28;20077;-70
2022/01/29 11:55:49;;;;;;;1.63;1.45;;;6.00;99.90;;;;;;5121100;28;20035;-70
2022/01/29 11:58:26;;;;;;;2.25;1.70;;;6.00;99.90;;;;;;5135684;27;20043;-70
2022/01/29 12:00:54;;;;;;;2.05;1.75;;;6.10;99.90;;;;;;5117712;27;20088;-68
2022/01/29 12:08:55;;;;;;;5.95;1.73;;;6.10;99.90;;;;;;5119324;28;20458;-69
2022/01/29 12:11:21;;;;;;;6.85;2.78;;;6.10;99.90;;;;;;5128899;27;20123;-69
2022/01/29 12:14:12;;;;;;;3.00;2.22;;;6.20;99.90;;;;;;5122230;27;20051;-70
2022/01/29 12:16:54;;;;;;;4.65;2.63;;;6.10;99.90;;;;;;5123331;27;20040;-70
2022/01/29 12:19:42;;;;;;;3.50;2.50;;;6.00;99.90;;;;;;5122067;27;20450;-71
2022/01/29 12:22:19;;;;;;;3.67;2.30;;;6.00;99.90;;;;;;5131937;27;20031;-71
2022/01/29 12:24:56;;;;;;;4.82;2.80;;;6.00;99.90;;;;;;5127164;27;20115;-69
2022/01/29 12:27:23;;;;;;;3.42;2.50;;;6.00;99.90;;;;;;5133924;27;20047;-71
2022/01/29 12:29:50;;;;;;;4.10;2.80;;;5.90;99.90;;;;;;5127582;27;20023;-71
2022/01/29 12:32:16;;;;;;;4.20;2.28;;;6.00;99.90;;;;;;5121685;27;20072;-71
2022/01/29 12:34:53;;;;;;;3.33;2.45;;;6.00;99.90;;;;;;5122602;27;20360;-69
2022/01/29 12:37:21;;;;;;;4.63;2.35;;;6.00;99.90;;;;;;5123109;27;20098;-72
2022/01/29 12:39:49;;;;;;;4.38;2.50;;;5.80;99.90;;;;;;5116616;27;20084;-71
2022/01/29 12:44:54;;;;;;;2.78;2.15;;;5.90;99.90;;;;;;5115751;28;20027;-69
2022/01/29 12:47:32;;;;;;;3.47;2.00;;;5.90;99.90;;;;;;5135020;27;20376;-70
2022/01/29 12:49:58;;;;;;;3.83;2.45;;;5.90;99.90;;;;;;5124617;27;20020;-72
2022/01/29 12:52:25;;;;;;;5.30;2.85;;;5.90;99.90;;;;;;5135340;27;20027;-70
2022/01/29 12:54:59;;;;;;;3.53;2.33;;;5.70;99.90;;;;;;5137139;27;20019;-69
2022/01/29 12:57:46;;;;;;;3.42;2.58;;;5.70;99.90;;;;;;5134915;27;20027;-68
2022/01/29 13:00:17;;;;;;;4.32;2.15;;;5.80;99.90;;;;;;5134966;27;20031;-70
2022/01/29 13:02:44;;;;;;;3.17;2.05;;;5.80;99.90;;;;;;5120061;28;20392;-71
2022/01/29 13:05:10;;;;;;;3.97;2.83;;;5.80;99.90;;;;;;5119529;28;20036;-71
2022/01/29 13:07:38;;;;;;;4.05;2.90;;;5.80;99.90;;;;;;5117488;28;20026;-70
2022/01/29 13:10:09;;;;;;;3.58;2.15;;;5.80;99.90;;;;;;5115528;27;20442;-70
2022/01/29 13:12:43;;;;;;;4.57;2.28;;;5.80;99.90;;;;;;5119535;27;20038;-71
2022/01/29 13:15:10;;;;;;;3.97;2.67;;;5.80;99.90;;;;;;5117862;27;20074;-71